Overview Statistics Trail Chart Weather Telemetry Raw packets
 

This is the latest recevied weather packets stored in our database for station/object IU3NMQ-10. If no packets are shown the sender has not sent any weather packets the latest 10 day(s).

<< 16 17 18 19 20 >>
Time Temp. Humidity Pressure Rain* Wind** Luminosity Snow
1787840233 32.22° C 58% 1013.3 hPa - - - -
1787839333 32.22° C 59% 1013.3 hPa - - - -
1787838433 32.22° C 60% 1013.2 hPa - - - -
1787837533 32.78° C 59% 1013.1 hPa - - - -
1787836663 32.22° C 60% 1013.4 hPa - - - -
1787836632 32.22° C 60% 1013.4 hPa - - - -
1787835730 32.78° C 59% 1013.4 hPa - - - -
1787834830 32.22° C 61% 1013.4 hPa - - - -
1787833930 32.78° C 59% 1013.5 hPa - - - -
1787833030 33.33° C 58% 1013.5 hPa - - - -
1787832130 32.78° C 60% 1013.5 hPa - - - -
1787831230 33.33° C 57% 1013.6 hPa - - - -
1787830330 32.78° C 61% 1013.5 hPa - - - -
1787829429 32.22° C 60% 1013.8 hPa - - - -
1787828529 32.78° C 59% 1013.9 hPa - - - -
1787827629 32.78° C 59% 1014 hPa - - - -
1787826729 32.22° C 60% 1014.1 hPa - - - -
1787825829 32.22° C 60% 1014 hPa - - - -
1787824929 31.67° C 60% 1014.1 hPa - - - -
1787824029 31.11° C 61% 1014.2 hPa - - - -
1787823129 31.11° C 63% 1014.3 hPa - - - -
1787822229 30.56° C 63% 1014.3 hPa - - - -
1787821328 30.56° C 64% 1014.3 hPa - - - -
1787820428 29.44° C 66% 1014.4 hPa - - - -
1787819528 28.89° C 68% 1014.4 hPa - - - -

* Rain since midnight (hover to see other rain measurements)
** Current wind speed in m/s (hover to see current wind gust speed)